Truckee, California
Current Conditions -  °F | °C
As of 2:55 AM on Sunday 23 Nov 2014 (Local Time) from KTRK Reporting Station
Moderate Fog Moderate Fog  
Wind Chill: -6°   Ceiling: 200
Heat Index: -6°   Visibility: 0.25mi
Dew Point: -6°   Wind: 0mph
Humidity: 100%   Direction: NA
Pressure: 30.31"   Gusts: NA
Location:  39.33°N, 120.21°W
Report Text: KTRK 231055Z AUTO 00000KT 1/4SM FZFG OVC002 M06/M06 A3031 RMK AO2
Loading
Personal Weather Stations






























Interactive Weather Map New forecast layout! Learn more

10-Day Weather Forecast

Advertisements
Track Severe Weather on mobile